Time;durP1;ratioP1;P1;durP2;ratioP2;P2;SDS_P1;SDS_P2;PMS_P1;PMS_P2;Temp;Humidity;BMP_temperature;BMP_pressure;BME280_temperature;BME280_humidity;BME280_pressure;Samples;Min_cycle;Max_cycle;Signal;HPM_P1;HPM_P2
2021/10/22 00:01:21;;;;;;;2.97;1.77;;;9.70;71.20;;;;;;5026310;28;20036;-78
2021/10/22 00:03:49;;;;;;;4.50;1.40;;;9.70;71.10;;;;;;5034947;28;20175;-78
2021/10/22 00:06:14;;;;;;;3.90;1.70;;;9.70;70.80;;;;;;5036537;28;20032;-78
2021/10/22 00:08:40;;;;;;;7.63;1.83;;;9.70;70.70;;;;;;5036616;28;20022;-78
2021/10/22 00:11:06;;;;;;;8.70;1.90;;;9.70;70.70;;;;;;5030669;28;20034;-78
2021/10/22 00:13:32;;;;;;;4.72;1.75;;;9.70;70.70;;;;;;5031959;28;20385;-78
2021/10/22 00:15:57;;;;;;;4.32;1.95;;;9.60;70.60;;;;;;5015292;28;20049;-78
2021/10/22 00:18:24;;;;;;;5.47;2.03;;;9.60;70.60;;;;;;5016735;28;20029;-78
2021/10/22 00:20:52;;;;;;;4.15;2.30;;;9.60;70.80;;;;;;5016631;28;20033;-78
2021/10/22 00:23:18;;;;;;;7.18;2.38;;;9.60;70.60;;;;;;5016767;28;20026;-78
2021/10/22 00:25:44;;;;;;;5.25;1.98;;;9.60;70.60;;;;;;5044129;28;20176;-78
2021/10/22 00:28:10;;;;;;;4.72;1.33;;;9.60;70.50;;;;;;5031067;28;20038;-78
2021/10/22 00:30:35;;;;;;;2.58;1.60;;;9.50;70.40;;;;;;5031516;28;20408;-78
2021/10/22 00:33:01;;;;;;;2.10;1.55;;;9.50;70.40;;;;;;5031641;28;20025;-78
2021/10/22 00:35:27;;;;;;;4.32;1.90;;;9.30;70.70;;;;;;5033805;28;20041;-78
2021/10/22 00:37:52;;;;;;;4.53;1.98;;;9.30;70.70;;;;;;5035905;28;20381;-78
2021/10/22 00:40:22;;;;;;;6.20;2.63;;;9.30;70.80;;;;;;5036078;28;20048;-78
2021/10/22 00:42:48;;;;;;;4.73;2.40;;;9.40;70.90;;;;;;5036020;28;20057;-78
2021/10/22 00:45:14;;;;;;;9.77;2.72;;;9.30;70.80;;;;;;5017581;28;20034;-78
2021/10/22 00:47:39;;;;;;;5.00;2.30;;;9.40;70.80;;;;;;5015936;28;20058;-78
2021/10/22 00:50:05;;;;;;;5.80;2.25;;;9.40;70.70;;;;;;5016088;28;20022;-77
2021/10/22 00:52:31;;;;;;;4.35;2.40;;;9.30;71.10;;;;;;5016164;28;20024;-78
2021/10/22 00:54:57;;;;;;;3.50;1.92;;;9.30;70.80;;;;;;5016107;28;20022;-78
2021/10/22 00:57:24;;;;;;;5.90;2.17;;;9.30;70.60;;;;;;5016223;28;20566;-78
2021/10/22 00:59:50;;;;;;;5.20;2.22;;;9.30;70.70;;;;;;5015953;28;20045;-78
2021/10/22 01:02:16;;;;;;;4.85;2.47;;;9.30;70.80;;;;;;5015801;28;20030;-78
2021/10/22 01:04:42;;;;;;;5.75;2.25;;;9.30;70.80;;;;;;5015803;28;20025;-78
2021/10/22 01:07:09;;;;;;;5.70;1.90;;;9.20;70.80;;;;;;5014385;28;20507;-78
2021/10/22 01:09:35;;;;;;;4.63;2.17;;;9.20;70.80;;;;;;5019403;28;20036;-78
2021/10/22 01:12:19;;;;;;;5.88;1.92;;;9.20;70.70;;;;;;5015976;28;20026;-77
2021/10/22 01:14:47;;;;;;;4.28;2.00;;;9.00;71.40;;;;;;5015580;28;20018;-78
2021/10/22 01:17:39;;;;;;;4.82;2.30;;;8.80;72.10;;;;;;5015747;28;20052;-78
2021/10/22 01:20:15;;;;;;;4.43;2.15;;;8.80;72.50;;;;;;5015966;28;20021;-78
2021/10/22 01:22:43;;;;;;;3.97;1.70;;;8.80;72.20;;;;;;5015614;28;20037;-78
2021/10/22 01:25:11;;;;;;;3.00;1.50;;;8.70;72.50;;;;;;5028363;28;20029;-78
2021/10/22 01:27:37;;;;;;;5.00;2.28;;;8.70;72.90;;;;;;5026628;28;20025;-78
2021/10/22 01:30:07;;;;;;;3.50;2.42;;;8.70;72.80;;;;;;5014227;28;20025;-78
2021/10/22 01:32:34;;;;;;;4.15;2.60;;;8.60;73.40;;;;;;5015364;28;20038;-77
2021/10/22 01:35:03;;;;;;;5.20;2.53;;;8.60;73.80;;;;;;5015521;28;20397;-77
2021/10/22 01:37:28;;;;;;;5.47;2.25;;;8.70;72.90;;;;;;5015133;28;20472;-77
2021/10/22 01:39:54;;;;;;;5.28;2.30;;;8.70;72.80;;;;;;5015623;28;20392;-77
2021/10/22 01:42:20;;;;;;;6.03;2.50;;;8.70;72.80;;;;;;5015618;28;20037;-78
2021/10/22 01:44:45;;;;;;;4.47;1.75;;;8.70;72.40;;;;;;5014142;28;20040;-78
2021/10/22 01:47:11;;;;;;;6.28;2.42;;;8.70;72.40;;;;;;5025592;28;20033;-78
2021/10/22 01:49:37;;;;;;;7.85;2.28;;;8.70;72.60;;;;;;5035152;28;20097;-77
2021/10/22 01:52:05;;;;;;;5.10;2.42;;;8.70;72.60;;;;;;5035160;28;20048;-77
2021/10/22 01:54:31;;;;;;;7.32;2.35;;;8.70;72.60;;;;;;5033655;28;20052;-78
2021/10/22 01:56:57;;;;;;;8.32;2.00;;;8.60;72.50;;;;;;5016786;28;20029;-77
2021/10/22 01:59:24;;;;;;;8.45;2.10;;;8.70;72.40;;;;;;5013852;28;20526;-77
2021/10/22 02:01:50;;;;;;;4.68;2.20;;;8.60;72.10;;;;;;5014930;28;20065;-78
2021/10/22 02:04:15;;;;;;;7.70;2.15;;;8.60;72.30;;;;;;5015278;28;20495;-77
2021/10/22 02:06:41;;;;;;;3.95;2.40;;;8.60;72.40;;;;;;5013741;28;20133;-78
2021/10/22 02:09:07;;;;;;;3.22;1.98;;;8.60;72.40;;;;;;5015312;28;20538;-77
2021/10/22 02:11:32;;;;;;;2.92;1.92;;;8.50;72.10;;;;;;5013927;28;20029;-78
2021/10/22 02:13:58;;;;;;;6.05;2.85;;;8.50;72.10;;;;;;5013958;28;20045;-77
2021/10/22 02:16:24;;;;;;;7.90;3.03;;;8.40;72.40;;;;;;5014816;28;20050;-77
2021/10/22 02:18:50;;;;;;;5.57;3.08;;;8.40;72.50;;;;;;5013865;28;20403;-77
2021/10/22 02:21:16;;;;;;;4.63;2.30;;;8.30;72.70;;;;;;5015084;28;20021;-77
2021/10/22 02:23:42;;;;;;;4.07;2.35;;;8.40;72.80;;;;;;5013781;28;20030;-78
2021/10/22 02:26:10;;;;;;;5.97;3.00;;;8.40;72.70;;;;;;5047347;28;20024;-77
2021/10/22 02:28:36;;;;;;;7.05;3.30;;;8.40;72.50;;;;;;5017630;28;20033;-78
2021/10/22 02:31:01;;;;;;;4.53;2.65;;;8.30;72.70;;;;;;5015005;28;20036;-77
2021/10/22 02:33:27;;;;;;;4.10;2.80;;;8.30;73.00;;;;;;5015096;28;20741;-78
2021/10/22 02:35:53;;;;;;;5.57;2.83;;;8.30;73.00;;;;;;5015681;28;20103;-77
2021/10/22 02:38:19;;;;;;;6.50;3.45;;;8.30;72.90;;;;;;5018480;28;20033;-78
2021/10/22 02:40:44;;;;;;;7.03;2.97;;;8.40;72.70;;;;;;5018510;28;20026;-78
2021/10/22 02:43:15;;;;;;;5.47;3.67;;;8.40;72.50;;;;;;5017200;28;20030;-77
2021/10/22 02:45:40;;;;;;;;;;;8.30;72.40;;;;;;5018890;28;20032;-77
2021/10/22 02:48:06;;;;;;;6.22;3.03;;;8.30;72.30;;;;;;5018218;28;19999;-78
2021/10/22 02:50:32;;;;;;;8.45;3.33;;;8.30;72.40;;;;;;5018442;28;20489;-78
2021/10/22 02:53:02;;;;;;;7.68;3.67;;;8.30;72.30;;;;;;5016714;28;20021;-78
2021/10/22 02:55:28;;;;;;;10.27;3.15;;;8.20;72.40;;;;;;5018298;28;20018;-78
2021/10/22 02:57:54;;;;;;;7.07;3.30;;;8.20;72.80;;;;;;5018247;28;20030;-78
2021/10/22 03:00:25;;;;;;;4.97;2.63;;;8.20;73.10;;;;;;5018191;28;20026;-76
2021/10/22 03:02:50;;;;;;;5.68;2.35;;;8.20;73.20;;;;;;5016735;28;20556;-77
2021/10/22 03:05:16;;;;;;;8.38;2.72;;;8.10;73.30;;;;;;5018100;28;20045;-78
2021/10/22 03:07:42;;;;;;;6.95;3.42;;;8.10;73.40;;;;;;5017677;28;20514;-78
2021/10/22 03:10:09;;;;;;;4.78;2.55;;;8.10;73.30;;;;;;5017928;28;20033;-78
2021/10/22 03:12:36;;;;;;;5.57;2.70;;;8.10;73.20;;;;;;5018020;28;20048;-78
2021/10/22 03:15:03;;;;;;;4.60;2.63;;;8.10;73.30;;;;;;5033780;28;20053;-77
2021/10/22 03:17:31;;;;;;;5.43;2.28;;;8.00;73.30;;;;;;5037590;28;20025;-77
2021/10/22 03:19:57;;;;;;;4.70;2.50;;;8.00;73.80;;;;;;5036103;28;20021;-77
2021/10/22 03:22:23;;;;;;;5.32;2.70;;;8.00;73.80;;;;;;5017845;28;20026;-77
2021/10/22 03:24:49;;;;;;;4.70;3.10;;;8.00;73.70;;;;;;5033572;28;20812;-78
2021/10/22 03:27:16;;;;;;;5.18;2.45;;;7.90;74.50;;;;;;5026216;28;20026;-77
2021/10/22 03:29:42;;;;;;;5.68;2.60;;;7.90;74.50;;;;;;5017546;28;20030;-77
2021/10/22 03:32:09;;;;;;;5.18;2.60;;;7.90;73.90;;;;;;5015700;28;20030;-77
2021/10/22 03:34:37;;;;;;;3.42;2.55;;;7.90;74.50;;;;;;5017597;28;20041;-77
2021/10/22 03:37:03;;;;;;;4.45;2.28;;;7.90;74.40;;;;;;5026390;28;20025;-78
2021/10/22 03:39:29;;;;;;;4.60;2.80;;;8.00;74.20;;;;;;5037302;28;20036;-77
2021/10/22 03:41:55;;;;;;;4.97;3.15;;;7.90;74.40;;;;;;5037255;28;20029;-78
2021/10/22 03:44:20;;;;;;;6.38;3.28;;;7.90;74.50;;;;;;5035799;28;20029;-77
2021/10/22 03:46:46;;;;;;;5.90;2.90;;;7.90;74.20;;;;;;5021422;28;20069;-77
2021/10/22 03:49:12;;;;;;;4.03;2.55;;;7.90;74.20;;;;;;5017292;28;20033;-77
2021/10/22 03:51:41;;;;;;;5.93;2.72;;;7.80;73.90;;;;;;5016871;28;20488;-77
2021/10/22 03:54:06;;;;;;;4.82;2.53;;;7.80;74.40;;;;;;5017169;28;20025;-78
2021/10/22 03:56:32;;;;;;;6.05;2.65;;;7.80;74.40;;;;;;5017174;28;20026;-78
2021/10/22 03:58:58;;;;;;;4.88;2.53;;;7.80;74.20;;;;;;5015784;28;20053;-77
2021/10/22 04:01:23;;;;;;;3.83;2.75;;;7.80;74.10;;;;;;5016916;28;20026;-77
2021/10/22 04:03:49;;;;;;;5.53;3.00;;;7.80;74.10;;;;;;5016965;28;20030;-78
2021/10/22 04:06:15;;;;;;;6.63;2.50;;;7.80;74.10;;;;;;5016907;28;20022;-77
2021/10/22 04:08:41;;;;;;;3.30;2.40;;;7.70;73.90;;;;;;5016911;28;20120;-77
2021/10/22 04:11:07;;;;;;;5.28;2.58;;;7.70;74.50;;;;;;5017018;28;20022;-78
2021/10/22 04:13:33;;;;;;;4.85;2.60;;;7.70;74.90;;;;;;5016813;28;20076;-78
2021/10/22 04:15:59;;;;;;;4.50;2.97;;;7.70;74.80;;;;;;5043325;28;20060;-78
2021/10/22 04:18:26;;;;;;;6.57;2.42;;;7.70;74.80;;;;;;5051117;28;20025;-79
2021/10/22 04:20:52;;;;;;;5.07;2.70;;;7.70;74.50;;;;;;5035374;28;20025;-76
2021/10/22 04:23:18;;;;;;;3.25;2.30;;;7.70;74.30;;;;;;5036310;28;20047;-77
2021/10/22 04:25:51;;;;;;;5.03;2.05;;;7.60;74.50;;;;;;5046949;28;20037;-78
2021/10/22 04:28:17;;;;;;;3.38;2.17;;;7.50;74.90;;;;;;5038666;28;20030;-77
2021/10/22 04:30:43;;;;;;;5.03;2.78;;;7.50;75.10;;;;;;5047387;28;20020;-77
2021/10/22 04:33:08;;;;;;;6.38;3.60;;;7.40;75.20;;;;;;5049668;28;20446;-77
2021/10/22 04:35:34;;;;;;;4.75;2.50;;;7.40;75.40;;;;;;5056111;28;20152;-77
2021/10/22 04:40:29;;;;;;;5.25;2.85;;;7.50;75.00;;;;;;5054809;28;20029;-77
2021/10/22 04:40:54;;;;;;;3.50;2.80;;;7.50;74.80;;;;;;5056128;28;20079;-77
2021/10/22 04:43:22;;;;;;;4.50;2.70;;;7.50;74.60;;;;;;5038134;28;20036;-79
2021/10/22 05:00:08;;;;;;;5.20;2.65;;;6.00;79.90;;;;;;5071284;28;20835;-76
2021/10/22 05:02:35;;;;;;;3.35;3.00;;;6.10;80.00;;;;;;5072668;28;20032;-78
2021/10/22 05:05:00;;;;;;;7.03;4.15;;;6.20;80.20;;;;;;5072830;28;20033;-81
2021/10/22 05:07:26;;;;;;;7.82;4.82;;;6.50;79.70;;;;;;5070421;28;20096;-82
2021/10/22 05:09:52;;;;;;;5.50;3.72;;;6.70;79.00;;;;;;5051181;28;20040;-86
2021/10/22 05:12:18;;;;;;;6.95;3.72;;;6.90;78.30;;;;;;5058507;28;20494;-82
2021/10/22 05:14:43;;;;;;;6.45;3.70;;;7.10;77.60;;;;;;5049942;28;20041;-81
2021/10/22 05:17:09;;;;;;;3.70;3.17;;;7.10;77.10;;;;;;5051493;28;20159;-78
2021/10/22 05:19:35;;;;;;;4.82;3.05;;;7.20;77.10;;;;;;5051706;28;20083;-78
2021/10/22 05:22:01;;;;;;;5.28;3.13;;;7.20;77.00;;;;;;5050334;28;20143;-77
2021/10/22 05:24:27;;;;;;;4.32;2.90;;;7.20;76.70;;;;;;5056897;28;20540;-78
2021/10/22 05:26:53;;;;;;;6.60;3.13;;;7.20;76.80;;;;;;5072304;28;20040;-82
2021/10/22 05:29:18;;;;;;;4.35;2.85;;;7.20;76.90;;;;;;5070758;28;20031;-82
2021/10/22 05:31:44;;;;;;;5.03;3.10;;;7.20;76.60;;;;;;5069940;28;20028;-79
2021/10/22 05:34:10;;;;;;;8.63;3.70;;;7.30;76.30;;;;;;5044649;28;20064;-82
2021/10/22 05:36:35;;;;;;;7.55;3.75;;;7.40;75.70;;;;;;5050509;28;20022;-82
2021/10/22 05:39:02;;;;;;;6.97;3.80;;;7.40;75.00;;;;;;5049989;28;20087;-82
2021/10/22 05:41:28;;;;;;;4.35;3.40;;;7.30;74.90;;;;;;5049838;28;20082;-82
2021/10/22 05:43:53;;;;;;;5.68;3.75;;;7.20;75.60;;;;;;5051992;28;20021;-81
2021/10/22 05:46:19;;;;;;;9.10;3.40;;;7.10;75.90;;;;;;5051965;28;20040;-81
2021/10/22 05:48:45;;;;;;;5.40;3.30;;;7.20;75.90;;;;;;5050150;28;20439;-84
2021/10/22 05:51:18;;;;;;;5.65;4.22;;;7.10;75.90;;;;;;5050744;28;20033;-79
2021/10/22 05:53:44;;;;;;;7.15;3.80;;;7.10;76.10;;;;;;5062617;28;20044;-79
2021/10/22 05:56:10;;;;;;;6.28;2.70;;;7.10;76.00;;;;;;5071332;28;20067;-79
2021/10/22 05:58:36;;;;;;;3.78;2.95;;;7.20;76.00;;;;;;5071464;28;20057;-79
2021/10/22 06:01:05;;;;;;;5.40;3.65;;;7.20;75.20;;;;;;5053587;28;20051;-79
2021/10/22 06:03:30;;;;;;;8.93;5.03;;;7.20;76.00;;;;;;5051616;28;20091;-79
2021/10/22 06:05:57;;;;;;;17.50;9.35;;;7.10;76.00;;;;;;5051550;28;20029;-79
2021/10/22 06:08:23;;;;;;;15.18;7.97;;;7.10;75.70;;;;;;5050908;28;20036;-79
2021/10/22 06:10:49;;;;;;;11.70;6.05;;;7.00;76.40;;;;;;5059059;28;20082;-79
2021/10/22 06:13:15;;;;;;;9.98;5.65;;;7.20;76.40;;;;;;5037934;28;20033;-79
2021/10/22 06:15:41;;;;;;;19.92;9.23;;;7.10;76.10;;;;;;5038149;28;20032;-79
2021/10/22 06:18:07;;;;;;;14.45;8.98;;;7.10;76.80;;;;;;5054460;28;20097;-79
2021/10/22 06:26:04;;;;;;;9.05;3.53;;;7.00;76.90;;;;;;5057079;28;20403;-79
2021/10/22 06:28:29;;;;;;;7.85;4.32;;;7.00;77.00;;;;;;5057056;28;20036;-79
2021/10/22 06:30:58;;;;;;;6.15;4.25;;;7.00;77.10;;;;;;5057803;28;20025;-79
2021/10/22 06:33:24;;;;;;;5.47;4.03;;;7.00;76.50;;;;;;5053216;28;20131;-79
2021/10/22 06:35:50;;;;;;;4.47;3.70;;;7.00;76.50;;;;;;5037931;28;20100;-79
2021/10/22 06:38:16;;;;;;;8.18;4.53;;;7.00;76.60;;;;;;5038076;28;20044;-79
2021/10/22 06:40:42;;;;;;;5.90;3.78;;;7.00;76.60;;;;;;5036325;28;20101;-79
2021/10/22 06:43:09;;;;;;;6.05;3.83;;;7.00;76.60;;;;;;5043272;28;20025;-79
2021/10/22 06:45:34;;;;;;;6.15;4.40;;;7.00;76.60;;;;;;5036330;28;20026;-79
2021/10/22 06:48:00;;;;;;;8.02;4.35;;;7.00;76.20;;;;;;5032479;28;20137;-79
2021/10/22 06:50:26;;;;;;;8.45;4.65;;;7.10;75.80;;;;;;5017842;28;20018;-79
2021/10/22 06:52:52;;;;;;;6.63;3.72;;;7.00;76.00;;;;;;5017672;28;20053;-79
2021/10/22 06:55:18;;;;;;;8.90;4.60;;;7.00;76.00;;;;;;5032936;28;20033;-79
2021/10/22 06:57:44;;;;;;;7.38;4.85;;;6.80;75.70;;;;;;5037300;28;20210;-79
2021/10/22 07:00:12;;;;;;;8.80;5.10;;;6.70;76.50;;;;;;5036120;28;20097;-79
2021/10/22 07:02:52;;;;;;;6.35;4.60;;;6.80;77.10;;;;;;5041607;28;20029;-79
2021/10/22 07:05:46;;;;;;;6.55;4.90;;;6.80;77.10;;;;;;5057227;28;20017;-79
2021/10/22 07:08:12;;;;;;;9.05;5.20;;;6.90;76.70;;;;;;5057055;28;20055;-79
2021/10/22 07:10:40;;;;;;;9.00;4.85;;;7.00;76.40;;;;;;5057155;28;20021;-79
2021/10/22 07:13:06;;;;;;;9.23;5.25;;;7.00;76.70;;;;;;5050204;28;20025;-79
2021/10/22 07:15:32;;;;;;;8.20;5.13;;;7.00;77.10;;;;;;5057088;28;20032;-79
2021/10/22 07:18:01;;;;;;;7.40;4.75;;;7.00;77.10;;;;;;5055431;28;20654;-79
2021/10/22 07:20:28;;;;;;;7.53;4.70;;;7.10;77.10;;;;;;5055462;28;20025;-79
2021/10/22 07:23:02;;;;;;;6.22;4.40;;;7.00;77.00;;;;;;5054720;28;20419;-79
2021/10/22 07:25:29;;;;;;;6.43;4.97;;;7.10;77.20;;;;;;5056868;28;20024;-79
2021/10/22 07:27:55;;;;;;;30.80;15.02;;;7.20;76.80;;;;;;5032822;28;20049;-79
2021/10/22 07:30:21;;;;;;;29.27;15.68;;;7.20;77.40;;;;;;5017178;28;20160;-79
2021/10/22 07:32:47;;;;;;;22.58;11.90;;;7.20;77.20;;;;;;5015472;28;20061;-79
2021/10/22 07:35:14;;;;;;;17.08;8.80;;;7.20;76.80;;;;;;5016883;28;20048;-79
2021/10/22 07:37:41;;;;;;;15.98;8.00;;;7.20;76.70;;;;;;5016888;28;20020;-79
2021/10/22 07:40:08;;;;;;;11.07;7.28;;;7.30;76.70;;;;;;5016848;28;20033;-79
2021/10/22 07:42:34;;;;;;;11.57;5.75;;;7.40;76.60;;;;;;5016001;28;20026;-79
2021/10/22 07:45:02;;;;;;;11.20;5.55;;;7.50;76.20;;;;;;5036006;28;20072;-79
2021/10/22 07:47:33;;;;;;;12.63;6.45;;;7.50;76.70;;;;;;5036304;28;20500;-79
2021/10/22 07:50:00;;;;;;;9.82;6.78;;;7.50;77.00;;;;;;5034739;28;20510;-79
2021/10/22 07:52:27;;;;;;;12.02;7.68;;;7.60;77.10;;;;;;5054912;28;20570;-79
2021/10/22 07:54:54;;;;;;;11.43;6.80;;;7.70;76.90;;;;;;5053666;28;20028;-79
2021/10/22 07:57:20;;;;;;;10.18;5.85;;;7.80;76.50;;;;;;5036420;28;20095;-79
2021/10/22 07:59:47;;;;;;;6.25;5.07;;;7.80;76.40;;;;;;5034811;28;20050;-79
2021/10/22 08:02:14;;;;;;;7.50;4.95;;;7.90;76.30;;;;;;5036247;28;20392;-79
2021/10/22 08:04:43;;;;;;;8.38;5.10;;;7.80;76.60;;;;;;5044546;28;20036;-79
2021/10/22 08:07:10;;;;;;;6.63;4.35;;;7.90;76.70;;;;;;5056027;28;20028;-79
2021/10/22 08:09:36;;;;;;;7.00;4.30;;;7.90;76.90;;;;;;5056059;28;20039;-79
2021/10/22 08:12:02;;;;;;;5.28;4.28;;;8.00;76.90;;;;;;5047122;28;20065;-79
2021/10/22 08:14:28;;;;;;;6.93;4.70;;;8.10;77.10;;;;;;5050080;28;20044;-79
2021/10/22 08:16:53;;;;;;;10.35;4.65;;;8.20;76.70;;;;;;5055699;28;20021;-79
2021/10/22 08:19:19;;;;;;;10.15;5.97;;;8.30;77.00;;;;;;5055827;28;20037;-79
2021/10/22 08:22:31;;;;;;;15.38;5.78;;;8.30;77.60;;;;;;5035824;28;20064;-79
2021/10/22 08:24:32;;;;;;;9.60;6.50;;;8.30;77.70;;;;;;5032787;28;20037;-80
2021/10/22 08:26:58;;;;;;;12.02;6.55;;;8.30;78.10;;;;;;5054312;28;20163;-79
2021/10/22 08:29:24;;;;;;;11.52;7.15;;;8.40;78.40;;;;;;5054128;28;20039;-79
2021/10/22 08:31:51;;;;;;;13.32;7.47;;;8.60;78.20;;;;;;5040718;28;20496;-79
2021/10/22 08:34:17;;;;;;;8.88;5.47;;;8.60;79.10;;;;;;5035449;28;20032;-79
2021/10/22 08:36:43;;;;;;;11.75;5.07;;;8.70;78.10;;;;;;5035607;28;20021;-80
2021/10/22 08:39:09;;;;;;;13.10;5.25;;;8.90;77.90;;;;;;5034443;28;20029;-80
2021/10/22 08:41:36;;;;;;;12.73;5.18;;;9.00;78.70;;;;;;5034166;28;20036;-79
2021/10/22 08:44:03;;;;;;;7.05;3.63;;;9.10;79.00;;;;;;5034147;28;20087;-79
2021/10/22 08:46:33;;;;;;;6.88;3.88;;;9.10;78.70;;;;;;5035316;28;20551;-80
2021/10/22 08:49:01;;;;;;;5.57;3.72;;;9.20;78.90;;;;;;5053066;28;20033;-79
2021/10/22 08:51:27;;;;;;;6.20;4.10;;;9.20;79.00;;;;;;5044191;28;20029;-80
2021/10/22 08:53:53;;;;;;;5.80;3.67;;;9.40;78.90;;;;;;5035394;28;20025;-79
2021/10/22 08:56:19;;;;;;;6.80;3.97;;;9.50;78.60;;;;;;5035667;28;20018;-80
2021/10/22 08:58:45;;;;;;;6.75;3.88;;;9.60;78.50;;;;;;5055078;28;20053;-80
2021/10/22 09:01:11;;;;;;;9.45;4.15;;;9.70;78.30;;;;;;5049388;28;20044;-80
2021/10/22 09:03:40;;;;;;;10.15;3.65;;;9.80;78.90;;;;;;5034037;28;20034;-80
2021/10/22 09:06:18;;;;;;;8.02;4.03;;;10.00;79.60;;;;;;5035701;28;20522;-80
2021/10/22 09:08:46;;;;;;;16.13;4.07;;;10.20;80.20;;;;;;5035462;28;20047;-79
2021/10/22 09:11:31;;;;;;;7.75;4.35;;;10.30;78.70;;;;;;5035280;28;20096;-80
2021/10/22 09:14:03;;;;;;;6.63;3.97;;;10.40;79.10;;;;;;5035262;28;20029;-80
2021/10/22 09:16:29;;;;;;;6.63;3.17;;;10.50;78.60;;;;;;5035179;28;20029;-80
2021/10/22 09:18:55;;;;;;;5.50;5.10;;;10.70;79.10;;;;;;5048128;28;20040;-80
2021/10/22 09:21:28;;;;;;;8.45;2.83;;;10.80;78.60;;;;;;5055140;28;20052;-80
2021/10/22 09:24:16;;;;;;;9.63;3.10;;;10.90;77.60;;;;;;5052007;28;20044;-80
2021/10/22 09:26:51;;;;;;;6.90;3.10;;;11.00;78.30;;;;;;5053410;28;20021;-81
2021/10/22 09:29:20;;;;;;;6.30;3.67;;;11.10;79.10;;;;;;5053684;28;20472;-80
2021/10/22 09:31:49;;;;;;;6.22;3.70;;;11.20;77.80;;;;;;5050790;28;20021;-81
2021/10/22 09:34:36;;;;;;;5.80;3.10;;;11.20;77.50;;;;;;5035081;28;20021;-80
2021/10/22 09:37:12;;;;;;;9.52;3.42;;;11.30;77.50;;;;;;5035125;28;20029;-80
2021/10/22 09:39:39;;;;;;;8.73;3.60;;;11.40;78.90;;;;;;5051580;28;20052;-81
2021/10/22 09:42:15;;;;;;;7.55;3.55;;;11.50;78.10;;;;;;5055063;28;20025;-80
2021/10/22 09:44:42;;;;;;;4.03;3.13;;;11.60;77.50;;;;;;5038416;28;20112;-80
2021/10/22 09:47:08;;;;;;;6.63;3.72;;;11.70;78.00;;;;;;5049810;28;20214;-80
2021/10/22 09:49:43;;;;;;;5.90;3.63;;;11.70;76.70;;;;;;5053494;28;20057;-80
2021/10/22 09:52:24;;;;;;;8.95;3.78;;;11.80;76.90;;;;;;5038730;28;20017;-80
2021/10/22 09:55:14;;;;;;;6.93;3.33;;;11.80;75.80;;;;;;5037594;28;20098;-81
2021/10/22 09:57:41;;;;;;;;;;;11.90;77.90;;;;;;5044178;28;20112;-80
2021/10/22 10:00:21;;;;;;;8.77;3.75;;;12.00;76.70;;;;;;5058548;28;19923;-81
2021/10/22 10:02:47;;;;;;;;;;;12.00;78.40;;;;;;5057418;28;20040;-81
2021/10/22 10:05:13;;;;;;;7.97;3.38;;;12.20;77.40;;;;;;5058229;28;19924;-81
2021/10/22 10:07:41;;;;;;;7.22;3.28;;;12.30;75.80;;;;;;5058330;28;20025;-81
2021/10/22 10:10:08;;;;;;;8.23;3.20;;;12.40;76.70;;;;;;5057460;28;20022;-81
2021/10/22 10:12:35;;;;;;;7.38;3.17;;;12.40;76.00;;;;;;5044420;28;20025;-81
2021/10/22 10:15:04;;;;;;;7.97;3.33;;;12.50;75.90;;;;;;5038554;28;20081;-81
2021/10/22 10:17:32;;;;;;;8.05;3.25;;;12.50;75.50;;;;;;5037006;28;20030;-81
2021/10/22 10:19:58;;;;;;;7.22;3.15;;;12.60;75.60;;;;;;5045550;28;20025;-81
2021/10/22 10:22:29;;;;;;;11.93;3.05;;;12.70;75.00;;;;;;5058102;28;20060;-82
2021/10/22 10:25:05;;;;;;;;;;;12.80;75.00;;;;;;5057220;28;20013;-82
2021/10/22 10:27:44;;;;;;;6.85;2.70;;;12.90;75.90;;;;;;5057907;28;19909;-82
2021/10/22 10:30:11;;;;;;;7.97;2.72;;;12.90;75.50;;;;;;5057873;28;20025;-82
2021/10/22 10:32:40;;;;;;;4.53;2.47;;;13.00;74.20;;;;;;5055149;28;20033;-82
2021/10/22 10:35:12;;;;;;;6.20;2.78;;;13.10;74.00;;;;;;5057957;28;20100;-82
2021/10/22 10:37:47;;;;;;;6.68;2.42;;;13.20;73.40;;;;;;5057767;28;20032;-82
2021/10/22 10:40:13;;;;;;;10.13;2.80;;;13.20;73.50;;;;;;5057858;28;20029;-82
2021/10/22 10:42:47;;;;;;;5.55;3.28;;;13.30;73.40;;;;;;5041918;28;20618;-82
2021/10/22 10:45:25;;;;;;;5.25;2.63;;;13.30;72.70;;;;;;5037720;28;20072;-80
2021/10/22 10:47:58;;;;;;;5.07;2.22;;;13.40;71.80;;;;;;5037453;28;20026;-82
2021/10/22 10:50:39;;;;;;;5.90;1.95;;;13.50;71.30;;;;;;5032964;28;20026;-82
2021/10/22 10:53:06;;;;;;;5.88;1.80;;;13.60;70.60;;;;;;5017825;28;20079;-82
2021/10/22 10:55:46;;;;;;;5.13;1.40;;;13.70;71.00;;;;;;5036593;28;20021;-82
2021/10/22 10:58:16;;;;;;;3.28;1.25;;;13.80;69.40;;;;;;5057067;28;20224;-83
2021/10/22 11:00:51;;;;;;;8.57;1.65;;;13.90;67.50;;;;;;5055778;28;20155;-82
2021/10/22 11:03:23;;;;;;;4.00;1.33;;;13.90;67.30;;;;;;5044051;28;20084;-83
2021/10/22 11:05:55;;;;;;;5.30;1.20;;;14.00;66.30;;;;;;5037182;28;20017;-82
2021/10/22 11:08:26;;;;;;;8.13;1.83;;;14.10;66.10;;;;;;5036575;28;20034;-81
2021/10/22 11:11:04;;;;;;;1.83;0.82;;;14.20;65.20;;;;;;5036026;28;20049;-81
2021/10/22 11:13:49;;;;;;;6.38;1.00;;;14.20;65.80;;;;;;5024972;28;20036;-83
2021/10/22 11:19:27;;;;;;;5.93;1.00;;;14.40;63.90;;;;;;5020374;28;20385;-80
2021/10/22 11:22:23;;;;;;;2.85;0.85;;;14.50;62.00;;;;;;5030520;28;20408;-82
2021/10/22 11:24:49;;;;;;;5.88;2.33;;;14.50;62.50;;;;;;5045677;28;20025;-83
2021/10/22 11:27:18;;;;;;;2.80;0.93;;;14.70;61.50;;;;;;5055062;28;20040;-80
2021/10/22 11:29:46;;;;;;;3.08;0.95;;;15.00;60.80;;;;;;5048613;28;20071;-82
2021/10/22 11:32:19;;;;;;;4.00;1.00;;;15.00;60.00;;;;;;5036648;28;20459;-83
2021/10/22 11:34:54;;;;;;;5.15;0.90;;;14.90;60.70;;;;;;5043741;28;20025;-80
2021/10/22 11:37:22;;;;;;;2.10;1.08;;;14.90;59.80;;;;;;5056689;28;20032;-82
2021/10/22 11:39:51;;;;;;;6.88;1.30;;;15.10;59.80;;;;;;5056600;28;20092;-82
2021/10/22 11:42:28;;;;;;;2.35;0.88;;;15.10;59.90;;;;;;5056562;28;20027;-82
2021/10/22 11:45:04;;;;;;;3.78;0.80;;;15.10;56.60;;;;;;5036420;28;20060;-82
2021/10/22 11:47:41;;;;;;;3.13;1.30;;;15.20;56.00;;;;;;5035066;28;20504;-82
2021/10/22 11:50:19;;;;;;;2.85;0.95;;;15.10;57.70;;;;;;5036452;28;20511;-82
2021/10/22 11:53:15;;;;;;;6.80;0.80;;;15.00;57.90;;;;;;5038934;28;20020;-80
2021/10/22 11:55:49;;;;;;;1.65;0.70;;;14.90;56.70;;;;;;5056339;28;20029;-81
2021/10/22 11:58:15;;;;;;;5.72;0.93;;;15.00;57.80;;;;;;5038119;28;20499;-82
2021/10/22 12:01:07;;;;;;;3.60;1.00;;;15.20;59.10;;;;;;5040700;28;20025;-80
2021/10/22 12:03:39;;;;;;;5.63;1.20;;;15.40;55.20;;;;;;5054901;28;20071;-81
2021/10/22 12:06:14;;;;;;;2.05;0.98;;;15.40;58.10;;;;;;5055963;28;20014;-82
2021/10/22 12:08:40;;;;;;;1.83;0.70;;;15.20;57.80;;;;;;5054339;28;20029;-79
2021/10/22 12:11:06;;;;;;;1.65;0.77;;;15.00;56.60;;;;;;5043672;28;20033;-79
2021/10/22 12:13:32;;;;;;;5.45;1.10;;;14.80;58.50;;;;;;5035939;28;20115;-79
2021/10/22 12:16:21;;;;;;;1.77;0.88;;;14.70;57.70;;;;;;5035901;28;20403;-81
2021/10/22 12:18:53;;;;;;;3.87;1.17;;;14.60;59.00;;;;;;5016485;28;20472;-81
2021/10/22 12:21:22;;;;;;;3.70;1.58;;;14.60;60.00;;;;;;5025079;28;20021;-81
2021/10/22 12:23:58;;;;;;;5.65;0.95;;;14.50;60.60;;;;;;5054445;28;20398;-81
2021/10/22 12:26:26;;;;;;;6.75;1.10;;;14.60;60.80;;;;;;5055868;28;20029;-81
2021/10/22 12:29:03;;;;;;;4.97;0.85;;;14.70;62.10;;;;;;5054053;28;20047;-80
2021/10/22 12:31:33;;;;;;;3.78;1.00;;;14.70;61.90;;;;;;5055619;28;20041;-81
2021/10/22 12:34:07;;;;;;;4.03;1.10;;;14.70;62.30;;;;;;5055694;28;20104;-81
2021/10/22 12:36:35;;;;;;;3.33;1.50;;;14.70;61.10;;;;;;5053993;28;20495;-81
2021/10/22 12:39:15;;;;;;;5.35;1.25;;;14.80;61.30;;;;;;5055537;28;20060;-81
2021/10/22 12:41:42;;;;;;;4.53;0.90;;;14.80;60.50;;;;;;5054171;28;20089;-81
2021/10/22 12:44:14;;;;;;;2.72;1.20;;;14.80;60.70;;;;;;5040499;28;20443;-81
2021/10/22 12:46:54;;;;;;;8.25;1.75;;;14.90;61.80;;;;;;5035633;28;20116;-81
2021/10/22 12:49:28;;;;;;;4.17;1.33;;;14.90;62.60;;;;;;5034396;28;20029;-80
2021/10/22 12:52:00;;;;;;;3.50;0.85;;;14.90;63.00;;;;;;5040496;28;20096;-81
2021/10/22 12:54:26;;;;;;;6.78;1.67;;;14.80;63.50;;;;;;5055455;28;20032;-81
2021/10/22 12:57:00;;;;;;;3.05;1.40;;;14.80;63.90;;;;;;5051364;28;20089;-81
2021/10/22 12:59:32;;;;;;;4.82;1.83;;;14.70;64.30;;;;;;5033720;28;20085;-81
2021/10/22 13:01:57;;;;;;;3.05;1.05;;;14.70;63.70;;;;;;5054698;28;20032;-81
2021/10/22 13:04:26;;;;;;;4.75;1.13;;;14.60;64.50;;;;;;5055465;28;20037;-80
2021/10/22 13:22:51;;;;;;;5.72;1.40;;;14.80;65.50;;;;;;5019744;28;20034;-79
2021/10/22 13:25:17;;;;;;;6.40;1.50;;;14.90;66.30;;;;;;5042781;28;20033;-81
2021/10/22 13:27:43;;;;;;;3.60;1.10;;;15.00;65.20;;;;;;5057687;28;20431;-79
2021/10/22 13:30:15;;;;;;;6.07;1.92;;;15.10;65.40;;;;;;5019396;28;20052;-81
2021/10/22 13:32:41;;;;;;;4.07;1.20;;;15.20;65.60;;;;;;5019191;28;20029;-80
2021/10/22 13:35:08;;;;;;;3.22;1.08;;;15.20;64.70;;;;;;5023276;28;20764;-79
2021/10/22 13:37:36;;;;;;;7.35;1.30;;;15.30;64.00;;;;;;5059027;28;20013;-81
2021/10/22 13:40:04;;;;;;;3.92;1.15;;;15.20;63.50;;;;;;5059095;28;20039;-79